KANB/ANB METAR and TAF weather

Enter ICAO airport designator
Station Type Date Time Source
KANB METAR 2019/02/23 22:53 UTC NOAA

KANB 232253Z AUTO 08010G17KT 10SM BKN060 OVC075 19/16 A2991 RMK AO2 SLP127 T01890156


Station Type Date Time Source
KANB Decoded METAR 2019/02/23 22:53 UTC NOAA

ANNISTON METRO AIRPORT, AL, United States (KANB) 33-35N 085-51W 183M
Feb 23, 2019 - 05:53 PM EST / 2019.02.23 2253 UTC
Wind: from the E (080 degrees) at 12 MPH (10 KT) gusting to 20 MPH (17 KT):0
Visibility: 10 mile(s):0
Sky conditions: overcast
Temperature: 66.0 F (18.9 C)
Dew Point: 60.1 F (15.6 C)
Relative Humidity: 81%
Pressure (altimeter): 29.91 in. Hg (1012 hPa)
ob: KANB 232253Z AUTO 08010G17KT 10SM BKN060 OVC075 19/16 A2991 RMK AO2 SLP127 T01890156
cycle: 23

Station Type Date Time Source
KANB TAF 2019/02/23 18:46 UTC NOAA

TAF KANB 231744Z 2318/2418 10009KT P6SM OVC015
FM240000 18012G22KT P6SM -SHRA VCTS SCT025CB OVC050
FM240400 20017G27KT 4SM -SHRA VCTS OVC025CB PROB30 2405/2409 2SM TSRA OVC025CB
FM241100 26015KT P6SM BKN050


Example: see airport list